createdAt,value
2022-11-15T00:01:18.947Z,1.50
2022-11-15T00:03:47.442Z,1.50
2022-11-15T00:06:14.208Z,1.50
2022-11-15T00:08:41.217Z,1.40
2022-11-15T00:11:10.719Z,1.40
2022-11-15T00:13:38.570Z,1.30
2022-11-15T00:16:06.599Z,1.30
2022-11-15T00:18:35.754Z,1.30
2022-11-15T00:21:20.577Z,1.30
2022-11-15T00:23:48.680Z,1.30
2022-11-15T00:26:16.457Z,1.20
2022-11-15T00:28:43.622Z,1.20
2022-11-15T00:31:16.407Z,1.20
2022-11-15T00:33:51.999Z,1.20
2022-11-15T00:36:18.671Z,1.20
2022-11-15T00:38:45.361Z,1.10
2022-11-15T00:41:13.777Z,1.10
2022-11-15T00:43:41.161Z,1.10
2022-11-15T00:46:09.606Z,1.10
2022-11-15T00:48:37.194Z,1.10
2022-11-15T00:51:04.061Z,1.00
2022-11-15T00:53:31.279Z,1.00
2022-11-15T00:55:59.325Z,1.00
2022-11-15T00:58:27.122Z,1.00
2022-11-15T01:00:54.064Z,0.90
2022-11-15T01:03:27.053Z,0.90
2022-11-15T01:05:55.113Z,0.90
2022-11-15T01:08:24.540Z,0.90
2022-11-15T01:10:51.454Z,0.90
2022-11-15T01:13:19.203Z,0.90
2022-11-15T01:15:46.216Z,0.90
2022-11-15T01:18:15.292Z,0.90
2022-11-15T01:20:43.411Z,0.90
2022-11-15T01:23:10.380Z,0.90
2022-11-15T01:25:37.188Z,0.90
2022-11-15T01:28:03.989Z,0.90
2022-11-15T01:30:30.860Z,0.90
2022-11-15T01:32:57.563Z,0.90
2022-11-15T01:35:24.549Z,0.80
2022-11-15T01:37:51.272Z,0.90
2022-11-15T01:40:19.527Z,0.80
2022-11-15T01:42:46.210Z,0.80
2022-11-15T01:45:19.967Z,0.80
2022-11-15T01:47:52.544Z,0.90
2022-11-15T01:50:24.812Z,0.80
2022-11-15T01:52:51.525Z,0.80
2022-11-15T01:55:28.411Z,0.80
2022-11-15T01:57:59.984Z,0.70
2022-11-15T02:00:29.116Z,0.70
2022-11-15T02:02:56.202Z,0.70
2022-11-15T02:05:26.204Z,0.70
2022-11-15T02:07:54.668Z,0.70
2022-11-15T02:10:24.436Z,0.70
2022-11-15T02:12:55.484Z,0.60
2022-11-15T02:15:24.180Z,0.60
2022-11-15T02:18:25.137Z,0.60
2022-11-15T02:21:07.722Z,0.60
2022-11-15T02:23:49.463Z,0.60
2022-11-15T02:26:40.318Z,0.60
2022-11-15T02:29:14.699Z,0.50
2022-11-15T02:31:56.955Z,0.50
2022-11-15T02:34:47.933Z,0.50
2022-11-15T02:37:31.452Z,0.50
2022-11-15T02:40:08.047Z,0.50
2022-11-15T02:43:02.104Z,0.40
2022-11-15T02:45:37.989Z,0.40
2022-11-15T02:48:06.618Z,0.40
2022-11-15T02:50:34.211Z,0.40
2022-11-15T02:53:01.008Z,0.40
2022-11-15T02:55:33.350Z,0.40
2022-11-15T02:58:18.172Z,0.30
2022-11-15T03:01:23.219Z,0.30
2022-11-15T03:04:05.258Z,0.30
2022-11-15T03:06:58.555Z,0.30
2022-11-15T03:09:57.422Z,0.30
2022-11-15T03:12:36.962Z,0.30
2022-11-15T03:15:15.317Z,0.30
2022-11-15T03:17:44.618Z,0.30
2022-11-15T03:20:14.737Z,0.30
2022-11-15T03:22:45.994Z,0.30
2022-11-15T03:25:18.472Z,0.30
2022-11-15T03:27:50.593Z,0.30
2022-11-15T03:30:18.015Z,0.30
2022-11-15T03:32:57.925Z,0.30
2022-11-15T03:35:39.854Z,0.30
2022-11-15T03:38:22.476Z,0.30
2022-11-15T03:40:56.744Z,0.30
2022-11-15T03:43:47.940Z,0.30
2022-11-15T03:46:37.027Z,0.20
2022-11-15T03:49:10.500Z,0.20
2022-11-15T03:51:37.439Z,0.20
2022-11-15T03:54:05.740Z,0.20
2022-11-15T03:56:32.671Z,0.20
2022-11-15T03:58:59.347Z,0.20
2022-11-15T04:01:30.448Z,0.20
2022-11-15T04:03:57.272Z,0.20
2022-11-15T04:06:24.967Z,0.20
2022-11-15T04:08:51.537Z,0.20
2022-11-15T04:11:20.351Z,0.20
2022-11-15T04:13:47.006Z,0.20
2022-11-15T04:16:13.640Z,0.10
2022-11-15T04:18:40.285Z,0.10
2022-11-15T04:21:25.468Z,0.10
2022-11-15T04:24:13.150Z,0.10
2022-11-15T04:26:39.894Z,0.10
2022-11-15T04:29:25.194Z,0.10
2022-11-15T04:31:51.852Z,0.00
2022-11-15T04:34:18.544Z,0.00
2022-11-15T04:37:03.692Z,0.00
2022-11-15T04:39:30.348Z,0.00
2022-11-15T04:41:57.789Z,0.00
2022-11-15T04:44:24.463Z,0.00
2022-11-15T04:46:51.176Z,0.00
2022-11-15T04:49:17.838Z,0.00
2022-11-15T04:51:44.793Z,0.00
2022-11-15T04:54:11.458Z,0.00
2022-11-15T04:56:38.169Z,0.00
2022-11-15T04:59:04.905Z,0.00
2022-11-15T05:01:34.173Z,0.00
2022-11-15T05:04:20.056Z,0.00
2022-11-15T05:06:51.804Z,0.00
2022-11-15T05:09:20.268Z,-0.10
2022-11-15T05:11:47.792Z,-0.10
2022-11-15T05:14:15.001Z,-0.10
2022-11-15T05:16:44.330Z,-0.10
2022-11-15T05:19:11.249Z,-0.10
2022-11-15T05:21:41.449Z,-0.10
2022-11-15T05:24:12.081Z,-0.20
2022-11-15T05:26:38.844Z,-0.20
2022-11-15T05:29:05.625Z,-0.20
2022-11-15T05:31:32.320Z,-0.20
2022-11-15T05:34:00.966Z,-0.20
2022-11-15T05:36:38.861Z,-0.20
2022-11-15T05:39:09.220Z,-0.20
2022-11-15T05:41:44.840Z,-0.20
2022-11-15T05:44:16.938Z,-0.30
2022-11-15T05:46:43.982Z,-0.20
2022-11-15T05:49:14.367Z,-0.20
2022-11-15T05:51:44.567Z,-0.30
2022-11-15T05:54:12.100Z,-0.30
2022-11-15T05:56:39.106Z,-0.30
2022-11-15T05:59:08.235Z,-0.30
2022-11-15T06:01:36.347Z,-0.40
2022-11-15T06:04:03.112Z,-0.40
2022-11-15T06:06:35.753Z,-0.40
2022-11-15T06:09:06.083Z,-0.40
2022-11-15T06:11:32.755Z,-0.40
2022-11-15T06:13:59.594Z,-0.40
2022-11-15T06:16:28.247Z,-0.40
2022-11-15T06:18:58.095Z,-0.40
2022-11-15T06:21:28.853Z,-0.40
2022-11-15T06:23:55.777Z,-0.40
2022-11-15T06:26:22.519Z,-0.40
2022-11-15T06:28:49.252Z,-0.40
2022-11-15T06:31:17.099Z,-0.40
2022-11-15T06:33:43.861Z,-0.40
2022-11-15T06:36:17.855Z,-0.40
2022-11-15T06:38:46.557Z,-0.40
2022-11-15T06:41:14.930Z,-0.40
2022-11-15T06:43:42.065Z,-0.40
2022-11-15T06:46:09.422Z,-0.40
2022-11-15T06:48:37.349Z,-0.40
2022-11-15T06:51:09.275Z,-0.30
2022-11-15T06:53:36.130Z,-0.30
2022-11-15T06:56:04.823Z,-0.30
2022-11-15T06:58:31.931Z,-0.20
2022-11-15T07:01:10.632Z,-0.20
2022-11-15T07:03:39.665Z,-0.20
2022-11-15T07:06:07.944Z,-0.10
2022-11-15T07:08:35.294Z,-0.10
2022-11-15T07:11:13.314Z,0.00
2022-11-15T07:13:40.236Z,0.00
2022-11-15T07:16:09.702Z,0.00
2022-11-15T07:18:38.246Z,0.10
2022-11-15T07:21:08.808Z,0.10
2022-11-15T07:23:39.137Z,0.20
2022-11-15T07:26:08.511Z,0.20
2022-11-15T07:28:36.296Z,0.30
2022-11-15T07:31:05.064Z,0.40
2022-11-15T07:33:32.437Z,0.40
2022-11-15T07:36:00.025Z,0.50
2022-11-15T07:38:32.070Z,0.60
2022-11-15T07:41:02.438Z,0.60
2022-11-15T07:43:33.812Z,0.70
2022-11-15T07:46:06.728Z,0.80
2022-11-15T07:48:44.000Z,0.90
2022-11-15T07:51:14.360Z,1.00
2022-11-15T07:53:42.116Z,1.00
2022-11-15T07:56:09.219Z,1.10
2022-11-15T07:58:36.970Z,1.20
2022-11-15T08:01:06.486Z,1.30
2022-11-15T08:03:34.625Z,1.30
2022-11-15T08:06:02.333Z,1.40
2022-11-15T08:08:29.331Z,1.50
2022-11-15T08:10:58.074Z,1.50
2022-11-15T08:13:24.958Z,1.60
2022-11-15T08:15:57.402Z,1.70
2022-11-15T08:18:24.866Z,1.80
2022-11-15T08:20:51.597Z,1.90
2022-11-15T08:23:18.403Z,2.00
2022-11-15T08:25:46.854Z,2.20
2022-11-15T08:28:13.944Z,2.30
2022-11-15T08:30:43.707Z,2.40
2022-11-15T08:33:15.261Z,2.50
2022-11-15T08:35:43.313Z,2.70
2022-11-15T08:38:10.484Z,2.90
2022-11-15T08:40:37.962Z,3.00
2022-11-15T08:43:05.353Z,3.10
2022-11-15T08:45:32.921Z,3.20
2022-11-15T08:48:03.386Z,3.30
2022-11-15T08:50:30.258Z,3.40
2022-11-15T08:52:59.574Z,3.50
2022-11-15T08:55:26.342Z,3.60
2022-11-15T08:58:00.521Z,3.70
2022-11-15T09:00:27.301Z,3.80
2022-11-15T09:02:54.399Z,4.00
2022-11-15T09:05:21.187Z,4.30
2022-11-15T09:07:49.298Z,4.40
2022-11-15T09:10:16.544Z,4.50
2022-11-15T09:12:44.160Z,4.70
2022-11-15T09:15:11.177Z,4.80
2022-11-15T09:17:37.882Z,4.80
2022-11-15T09:20:05.578Z,5.00
2022-11-15T09:22:33.229Z,5.10
2022-11-15T09:25:01.462Z,5.20
2022-11-15T09:27:31.952Z,5.20
2022-11-15T09:29:58.877Z,5.30
2022-11-15T09:32:36.303Z,5.40
2022-11-15T09:35:05.989Z,5.50
2022-11-15T09:37:34.825Z,5.60
2022-11-15T09:40:01.849Z,5.60
2022-11-15T09:42:40.474Z,5.70
2022-11-15T09:45:28.963Z,5.80
2022-11-15T09:48:10.828Z,5.90
2022-11-15T09:50:48.237Z,6.00
2022-11-15T09:54:24.172Z,6.10
2022-11-15T09:56:32.105Z,6.10
2022-11-15T09:58:58.751Z,6.20
2022-11-15T10:01:49.984Z,6.30
2022-11-15T10:04:17.143Z,6.30
2022-11-15T10:07:03.259Z,6.40
2022-11-15T10:09:48.670Z,6.50
2022-11-15T10:12:16.610Z,6.70
2022-11-15T10:14:43.777Z,6.80
2022-11-15T10:17:51.674Z,6.90
2022-11-15T10:20:25.646Z,7.10
2022-11-15T10:22:56.291Z,7.30
2022-11-15T10:25:33.841Z,7.40
2022-11-15T10:28:16.385Z,7.50
2022-11-15T10:30:48.807Z,7.60
2022-11-15T10:33:36.603Z,7.70
2022-11-15T10:36:26.136Z,7.80
2022-11-15T10:38:59.153Z,7.90
2022-11-15T10:41:28.974Z,8.00
2022-11-15T10:44:08.035Z,8.10
2022-11-15T10:46:51.960Z,8.30
2022-11-15T10:49:25.335Z,8.40
2022-11-15T10:52:05.269Z,8.50
2022-11-15T10:54:41.198Z,8.60
2022-11-15T10:57:15.846Z,8.80
2022-11-15T10:59:57.328Z,8.90
2022-11-15T11:02:38.041Z,9.00
2022-11-15T11:05:25.627Z,9.10
2022-11-15T11:08:05.372Z,9.20
2022-11-15T11:10:50.879Z,9.30
2022-11-15T11:13:29.288Z,9.40
2022-11-15T11:16:08.016Z,9.50
2022-11-15T11:18:44.942Z,9.60
2022-11-15T11:21:19.583Z,9.70
2022-11-15T11:23:57.895Z,9.80
2022-11-15T11:26:47.071Z,9.80
2022-11-15T11:29:23.890Z,10.00
2022-11-15T11:32:12.789Z,10.10
2022-11-15T11:34:52.286Z,10.10
2022-11-15T11:37:23.038Z,10.20
2022-11-15T11:40:14.457Z,10.30
2022-11-15T11:43:00.216Z,10.40
2022-11-15T11:45:54.758Z,10.50
2022-11-15T11:48:45.568Z,10.50
2022-11-15T11:51:18.185Z,10.70
2022-11-15T11:54:13.561Z,10.80
2022-11-15T11:56:44.223Z,10.80
2022-11-15T11:59:20.200Z,10.80
2022-11-15T12:01:47.214Z,10.90
2022-11-15T12:04:39.156Z,11.00
2022-11-15T12:07:16.608Z,11.10
2022-11-15T12:10:00.667Z,11.20
2022-11-15T12:12:40.300Z,11.30
2022-11-15T12:15:10.151Z,11.30
2022-11-15T12:17:46.587Z,11.30
2022-11-15T12:20:22.643Z,11.50
2022-11-15T12:22:59.093Z,11.50
2022-11-15T12:25:47.823Z,11.60
2022-11-15T12:28:58.651Z,11.60
2022-11-15T12:31:40.900Z,11.70
2022-11-15T12:34:23.016Z,11.70
2022-11-15T12:36:51.905Z,11.80
2022-11-15T12:39:19.880Z,11.80
2022-11-15T12:41:55.864Z,11.90
2022-11-15T12:44:48.636Z,11.90
2022-11-15T12:47:26.841Z,11.90
2022-11-15T12:49:54.557Z,12.00
2022-11-15T12:52:21.484Z,12.00
2022-11-15T12:54:56.976Z,12.00
2022-11-15T12:57:34.182Z,12.00
2022-11-15T13:00:25.468Z,12.10
2022-11-15T13:03:24.416Z,12.10
2022-11-15T13:05:59.248Z,12.20
2022-11-15T13:08:48.657Z,12.20
2022-11-15T13:11:45.146Z,12.20
2022-11-15T13:14:46.189Z,12.30
2022-11-15T13:17:28.929Z,12.30
2022-11-15T13:20:17.006Z,12.30
2022-11-15T13:23:03.874Z,12.30
2022-11-15T13:25:48.978Z,12.30
2022-11-15T13:28:18.584Z,12.30
2022-11-15T13:30:48.368Z,12.30
2022-11-15T13:33:22.073Z,12.30
2022-11-15T13:35:56.380Z,12.30
2022-11-15T13:38:26.742Z,12.30
2022-11-15T13:40:54.151Z,12.30
2022-11-15T13:43:28.650Z,12.30
2022-11-15T13:46:31.052Z,12.30
2022-11-15T13:49:03.494Z,12.30
2022-11-15T13:51:55.792Z,12.30
2022-11-15T13:55:09.744Z,12.30
2022-11-15T13:57:50.383Z,12.30
2022-11-15T14:00:35.369Z,12.20
2022-11-15T14:03:19.998Z,12.20
2022-11-15T14:06:14.554Z,12.10
2022-11-15T14:08:42.956Z,12.10
2022-11-15T14:11:18.377Z,12.00
2022-11-15T14:14:03.873Z,12.00
2022-11-15T14:16:39.797Z,11.90
2022-11-15T14:19:33.738Z,11.90
2022-11-15T14:22:22.075Z,11.80
2022-11-15T14:25:08.437Z,11.80
2022-11-15T14:27:35.591Z,11.80
2022-11-15T14:30:02.780Z,11.70
2022-11-15T14:32:38.424Z,11.70
2022-11-15T14:35:14.045Z,11.60
2022-11-15T14:37:41.809Z,11.50
2022-11-15T14:40:11.012Z,11.40
2022-11-15T14:42:37.711Z,11.30
2022-11-15T14:45:09.818Z,11.30
2022-11-15T14:47:36.702Z,11.30
2022-11-15T14:50:05.311Z,11.20
2022-11-15T14:52:36.522Z,11.10
2022-11-15T14:55:12.798Z,11.00
2022-11-15T14:57:39.575Z,10.90
2022-11-15T15:00:07.481Z,10.80
2022-11-15T15:02:34.264Z,10.80
2022-11-15T15:05:04.035Z,10.70
2022-11-15T15:07:30.929Z,10.60
2022-11-15T15:10:24.899Z,10.50
2022-11-15T15:12:47.156Z,10.40
2022-11-15T15:15:17.166Z,10.30
2022-11-15T15:17:45.220Z,10.10
2022-11-15T15:20:14.582Z,10.00
2022-11-15T15:22:41.478Z,9.90
2022-11-15T15:25:22.286Z,9.80
2022-11-15T15:27:50.954Z,9.70
2022-11-15T15:30:18.280Z,9.50
2022-11-15T15:32:47.571Z,9.40
2022-11-15T15:35:15.619Z,9.30
2022-11-15T15:37:48.142Z,9.10
2022-11-15T15:40:16.878Z,9.00
2022-11-15T15:42:44.503Z,8.90
2022-11-15T15:45:12.451Z,8.70
2022-11-15T15:47:39.842Z,8.60
2022-11-15T15:50:24.708Z,8.50
2022-11-15T15:52:53.002Z,8.40
2022-11-15T15:55:20.830Z,8.30
2022-11-15T15:57:48.321Z,8.20
2022-11-15T16:00:17.996Z,8.10
2022-11-15T16:02:45.423Z,8.00
2022-11-15T16:05:13.815Z,7.90
2022-11-15T16:07:41.536Z,7.80
2022-11-15T16:10:17.395Z,7.70
2022-11-15T16:12:44.157Z,7.70
2022-11-15T16:15:11.067Z,7.60
2022-11-15T16:17:51.354Z,7.50
2022-11-15T16:20:31.351Z,7.50
2022-11-15T16:22:58.531Z,7.40
2022-11-15T16:25:26.112Z,7.30
2022-11-15T16:27:53.064Z,7.30
2022-11-15T16:30:22.011Z,7.20
2022-11-15T16:32:49.053Z,7.10
2022-11-15T16:35:17.909Z,7.00
2022-11-15T16:37:47.075Z,7.00
2022-11-15T16:40:27.831Z,6.90
2022-11-15T16:42:56.892Z,6.80
2022-11-15T16:45:24.605Z,6.70
2022-11-15T16:47:52.416Z,6.70
2022-11-15T16:50:31.299Z,6.60
2022-11-15T16:53:00.845Z,6.50
2022-11-15T16:55:29.495Z,6.50
2022-11-15T16:57:58.123Z,6.50
2022-11-15T17:00:26.595Z,6.40
2022-11-15T17:02:54.202Z,6.30
2022-11-15T17:05:23.165Z,6.30
2022-11-15T17:07:54.830Z,6.20
2022-11-15T17:10:24.621Z,6.20
2022-11-15T17:12:52.668Z,6.10
2022-11-15T17:15:19.961Z,6.00
2022-11-15T17:17:55.145Z,6.00
2022-11-15T17:20:24.371Z,5.90
2022-11-15T17:22:53.064Z,5.90
2022-11-15T17:25:20.503Z,5.80
2022-11-15T17:27:47.486Z,5.80
2022-11-15T17:30:15.570Z,5.80
2022-11-15T17:32:43.589Z,5.80
2022-11-15T17:35:15.520Z,5.70
2022-11-15T17:37:43.425Z,5.70
2022-11-15T17:40:10.775Z,5.60
2022-11-15T17:42:37.514Z,5.60
2022-11-15T17:45:20.720Z,5.50
2022-11-15T17:47:47.458Z,5.50
2022-11-15T17:50:14.568Z,5.40
2022-11-15T17:52:43.427Z,5.40
2022-11-15T17:55:11.254Z,5.40
2022-11-15T17:57:38.773Z,5.30
2022-11-15T18:00:09.689Z,5.30
2022-11-15T18:02:38.024Z,5.30
2022-11-15T18:05:05.242Z,5.20
2022-11-15T18:07:33.291Z,5.20
2022-11-15T18:10:01.168Z,5.20
2022-11-15T18:12:29.084Z,5.10
2022-11-15T18:14:56.009Z,5.10
2022-11-15T18:17:24.017Z,5.00
2022-11-15T18:19:51.787Z,5.00
2022-11-15T18:22:19.584Z,5.00
2022-11-15T18:24:47.208Z,5.00
2022-11-15T18:27:16.854Z,4.90
2022-11-15T18:29:44.891Z,4.90
2022-11-15T18:32:14.812Z,4.80
2022-11-15T18:34:41.776Z,4.80
2022-11-15T18:37:10.760Z,4.80
2022-11-15T18:39:38.040Z,4.70
2022-11-15T18:42:06.041Z,4.60
2022-11-15T18:44:34.929Z,4.60
2022-11-15T18:47:01.989Z,4.60
2022-11-15T18:49:28.802Z,4.50
2022-11-15T18:51:58.729Z,4.50
2022-11-15T18:54:30.688Z,4.40
2022-11-15T18:56:57.920Z,4.40
2022-11-15T18:59:26.048Z,4.40
2022-11-15T19:01:53.858Z,4.30
2022-11-15T19:04:29.417Z,4.30
2022-11-15T19:06:56.314Z,4.40
2022-11-15T19:09:27.331Z,4.30
2022-11-15T19:11:54.054Z,4.30
2022-11-15T19:14:24.406Z,4.40
2022-11-15T19:16:52.686Z,4.40
2022-11-15T19:19:28.216Z,4.40
2022-11-15T19:21:57.603Z,4.40
2022-11-15T19:24:27.347Z,4.40
2022-11-15T19:26:54.955Z,4.40
2022-11-15T19:29:21.928Z,4.40
2022-11-15T19:31:50.746Z,4.40
2022-11-15T19:34:18.581Z,4.40
2022-11-15T19:36:45.621Z,4.40
2022-11-15T19:39:14.651Z,4.40
2022-11-15T19:41:44.243Z,4.40
2022-11-15T19:44:13.160Z,4.40
2022-11-15T19:46:41.790Z,4.50
2022-11-15T19:49:11.585Z,4.50
2022-11-15T19:51:41.468Z,4.50
2022-11-15T19:54:09.841Z,4.60
2022-11-15T19:56:39.962Z,4.60
2022-11-15T19:59:07.480Z,4.60
2022-11-15T20:01:39.446Z,4.60
2022-11-15T20:04:07.825Z,4.60
2022-11-15T20:06:38.436Z,4.60
2022-11-15T20:09:13.663Z,4.60
2022-11-15T20:11:41.744Z,4.60
2022-11-15T20:14:19.967Z,4.70
2022-11-15T20:16:51.440Z,4.60
2022-11-15T20:19:22.470Z,4.70
2022-11-15T20:21:49.737Z,4.60
2022-11-15T20:24:16.483Z,4.60
2022-11-15T20:26:46.363Z,4.60
2022-11-15T20:29:15.642Z,4.60
2022-11-15T20:31:43.426Z,4.60
2022-11-15T20:34:10.196Z,4.60
2022-11-15T20:36:36.905Z,4.60
2022-11-15T20:39:03.679Z,4.60
2022-11-15T20:41:30.828Z,4.60
2022-11-15T20:43:57.680Z,4.70
2022-11-15T20:46:24.453Z,4.70
2022-11-15T20:48:54.791Z,4.80
2022-11-15T20:51:22.856Z,4.80
2022-11-15T20:53:50.056Z,4.90
2022-11-15T20:56:20.418Z,5.00
2022-11-15T20:58:48.323Z,5.00
2022-11-15T21:01:17.752Z,5.00
2022-11-15T21:03:44.709Z,5.00
2022-11-15T21:06:13.603Z,5.00
2022-11-15T21:08:59.353Z,5.00
2022-11-15T21:11:44.689Z,5.00
2022-11-15T21:14:11.599Z,5.00
2022-11-15T21:16:39.035Z,5.00
2022-11-15T21:19:06.689Z,5.00
2022-11-15T21:21:35.281Z,5.00
2022-11-15T21:24:06.415Z,5.00
2022-11-15T21:26:33.672Z,5.00
2022-11-15T21:29:07.330Z,5.00
2022-11-15T21:31:34.556Z,5.00
2022-11-15T21:34:09.695Z,4.90
2022-11-15T21:36:36.453Z,5.00
2022-11-15T21:39:04.937Z,5.00
2022-11-15T21:41:31.710Z,5.00
2022-11-15T21:43:59.766Z,5.00
2022-11-15T21:46:27.882Z,5.00
2022-11-15T21:48:55.153Z,5.00
2022-11-15T21:51:22.899Z,5.00
2022-11-15T21:53:49.911Z,5.00
2022-11-15T21:56:19.034Z,4.90
2022-11-15T21:58:45.830Z,5.00
2022-11-15T22:01:33.958Z,4.90
2022-11-15T22:04:00.821Z,5.00
2022-11-15T22:06:27.614Z,5.00
2022-11-15T22:08:54.444Z,5.00
2022-11-15T22:11:23.826Z,5.00
2022-11-15T22:13:52.024Z,5.00
2022-11-15T22:16:21.125Z,5.00
2022-11-15T22:18:47.904Z,5.00
2022-11-15T22:21:16.609Z,5.00
2022-11-15T22:23:43.928Z,5.00
2022-11-15T22:26:19.401Z,5.00
2022-11-15T22:28:50.198Z,5.00
2022-11-15T22:31:17.049Z,5.00
2022-11-15T22:33:44.931Z,5.00
2022-11-15T22:36:12.619Z,5.00
2022-11-15T22:38:40.332Z,5.10
2022-11-15T22:41:07.137Z,5.10
2022-11-15T22:43:36.996Z,5.00
2022-11-15T22:46:05.414Z,5.00
2022-11-15T22:48:35.253Z,5.10
2022-11-15T22:51:02.788Z,5.00
2022-11-15T22:53:37.273Z,5.10
2022-11-15T22:56:06.074Z,5.00
2022-11-15T22:58:34.154Z,5.00
2022-11-15T23:01:03.080Z,5.00
2022-11-15T23:03:33.422Z,5.00
2022-11-15T23:06:05.843Z,5.00
2022-11-15T23:08:37.086Z,5.00
2022-11-15T23:11:23.943Z,5.10
2022-11-15T23:13:52.176Z,5.00
2022-11-15T23:16:25.486Z,5.00
2022-11-15T23:18:56.072Z,5.10
2022-11-15T23:21:53.629Z,5.10
2022-11-15T23:24:21.555Z,5.10
2022-11-15T23:26:53.517Z,5.10
2022-11-15T23:29:24.855Z,5.10
2022-11-15T23:32:15.146Z,5.00
2022-11-15T23:34:44.633Z,5.10
2022-11-15T23:37:14.381Z,5.10
2022-11-15T23:39:41.163Z,5.10
2022-11-15T23:42:09.591Z,5.10
2022-11-15T23:44:36.959Z,5.10
2022-11-15T23:47:04.005Z,5.10
2022-11-15T23:49:30.781Z,5.10
2022-11-15T23:51:57.663Z,5.10
2022-11-15T23:54:26.402Z,5.10
2022-11-15T23:56:53.190Z,5.10
2022-11-15T23:59:19.951Z,5.10
